aviador You're here:

KVLD Decoded Metar

VALDOSTA REGIONA in GA, USA
Report Time2018-07-16 07:53:00
UTC Time2018-07-16 08:25:06
Flight Rules vfr VFR
Wind170° at 04 kt
W.Decomp.*RWY 17: 4.0 kt HW 0.3 kt RCW
RWY 13: 2.8 kt HW 2.8 kt RCW
RWY 22: 2.8 kt HW 2.8 kt LCW
W.Rank170° ranks 10
Current wind is below 170° avg. (5.9)
Visibility9999 m
Phenomena:N/A
Clouds:N/A
CeilingNone
Temp23°C (ISA +8)
Dew Point23°C (100% RH)
QNH1017 hPa
Density Alt1,414 ft
Elevation203 ft
Report Wrong Elevation
Raw Report
METAR KVLD 160753Z AUTO 17004KT 9SM CLR 23/23 A3002 RMK AO2 SLP171
T02330233=

Extra information for KVLD:More info

Metar Taf Metar & Taf Last 4 Metars F.Rules Stats Wind Profile Meteogram Temp Stats Airport Information Weather charts Add Link Nearby VenuesMetar ALERT Operation Metar Decoded Social comments

AIRNAV info for KVLD
True Flight Aerospace